createdAt,value
2022-09-13T00:01:08.894Z,12.37
2022-09-13T00:03:37.731Z,12.20
2022-09-13T00:06:10.425Z,12.17
2022-09-13T00:08:39.032Z,12.57
2022-09-13T00:11:08.886Z,11.83
2022-09-13T00:13:37.104Z,11.97
2022-09-13T00:16:05.577Z,12.50
2022-09-13T00:18:34.603Z,11.93
2022-09-13T00:21:08.222Z,13.10
2022-09-13T00:23:36.817Z,12.60
2022-09-13T00:26:09.266Z,12.63
2022-09-13T00:28:38.707Z,12.50
2022-09-13T00:31:08.773Z,12.23
2022-09-13T00:33:37.743Z,12.60
2022-09-13T00:36:08.005Z,12.77
2022-09-13T00:38:37.470Z,13.03
2022-09-13T00:41:07.024Z,12.37
2022-09-13T00:43:46.369Z,13.47
2022-09-13T00:46:20.548Z,12.90
2022-09-13T00:48:49.595Z,13.27
2022-09-13T00:51:18.197Z,12.83
2022-09-13T00:53:50.622Z,13.00
2022-09-13T00:56:24.415Z,12.53
2022-09-13T00:58:58.985Z,12.60
2022-09-13T01:01:33.844Z,12.83
2022-09-13T01:04:04.185Z,13.27
2022-09-13T01:06:35.236Z,12.73
2022-09-13T01:09:05.016Z,12.10
2022-09-13T01:11:42.033Z,12.17
2022-09-13T01:14:11.912Z,12.90
2022-09-13T01:16:40.292Z,13.30
2022-09-13T01:19:09.125Z,13.10
2022-09-13T01:22:10.484Z,12.73
2022-09-13T01:25:17.491Z,13.00
2022-09-13T01:28:14.137Z,13.47
2022-09-13T01:30:47.427Z,13.43
2022-09-13T01:33:29.411Z,12.80
2022-09-13T01:36:24.165Z,12.30
2022-09-13T01:39:00.455Z,13.40
2022-09-13T01:41:54.048Z,13.27
2022-09-13T01:44:35.529Z,13.20
2022-09-13T01:47:14.796Z,12.83
2022-09-13T01:49:48.871Z,13.57
2022-09-13T01:52:26.635Z,13.10
2022-09-13T01:55:02.913Z,13.50
2022-09-13T01:57:36.784Z,13.23
2022-09-13T02:00:10.152Z,13.00
2022-09-13T02:02:47.782Z,13.43
2022-09-13T02:05:19.825Z,13.40
2022-09-13T02:07:55.078Z,12.97
2022-09-13T02:10:26.568Z,13.17
2022-09-13T02:12:57.207Z,12.93
2022-09-13T02:15:29.245Z,12.93
2022-09-13T02:18:08.659Z,13.23
2022-09-13T02:20:41.484Z,13.10
2022-09-13T02:23:14.396Z,14.17
2022-09-13T02:25:44.846Z,13.47
2022-09-13T02:28:17.585Z,13.60
2022-09-13T02:30:53.336Z,13.60
2022-09-13T02:33:29.809Z,13.80
2022-09-13T02:36:02.659Z,13.73
2022-09-13T02:38:34.856Z,13.70
2022-09-13T02:41:11.718Z,13.60
2022-09-13T02:43:44.227Z,13.57
2022-09-13T02:46:22.625Z,13.80
2022-09-13T02:49:01.084Z,13.87
2022-09-13T02:51:36.514Z,14.53
2022-09-13T02:54:12.320Z,14.00
2022-09-13T02:56:51.046Z,13.93
2022-09-13T02:59:22.593Z,14.80
2022-09-13T03:01:54.862Z,13.90
2022-09-13T03:04:24.659Z,14.07
2022-09-13T03:06:53.325Z,14.30
2022-09-13T03:09:22.889Z,14.23
2022-09-13T03:12:22.722Z,13.70
2022-09-13T03:14:58.382Z,14.30
2022-09-13T03:17:39.278Z,14.17
2022-09-13T03:20:18.585Z,15.17
2022-09-13T03:23:25.524Z,15.63
2022-09-13T03:26:22.666Z,15.37
2022-09-13T03:29:03.162Z,15.07
2022-09-13T03:31:36.153Z,15.10
2022-09-13T03:34:11.747Z,14.30
2022-09-13T03:36:47.345Z,15.60
2022-09-13T03:39:26.146Z,14.53
2022-09-13T03:42:00.093Z,13.93
2022-09-13T03:44:30.648Z,15.23
2022-09-13T03:47:02.345Z,14.07
2022-09-13T03:49:32.717Z,14.70
2022-09-13T03:52:02.586Z,14.60
2022-09-13T03:54:33.135Z,14.80
2022-09-13T03:57:12.503Z,14.70
2022-09-13T03:59:45.172Z,14.50
2022-09-13T04:02:14.109Z,14.20
2022-09-13T04:04:43.329Z,14.43
2022-09-13T04:07:15.347Z,14.50
2022-09-13T04:09:44.144Z,14.57
2022-09-13T04:12:13.966Z,14.20
2022-09-13T04:14:43.836Z,14.80
2022-09-13T04:17:13.055Z,14.60
2022-09-13T04:19:41.405Z,14.77
2022-09-13T04:22:10.055Z,15.57
2022-09-13T04:24:40.123Z,14.90
2022-09-13T04:27:08.698Z,15.47
2022-09-13T04:29:37.022Z,15.40
2022-09-13T04:32:05.406Z,14.87
2022-09-13T04:34:33.696Z,15.30
2022-09-13T04:37:02.066Z,15.50
2022-09-13T04:39:30.335Z,14.90
2022-09-13T04:41:59.865Z,14.70
2022-09-13T04:44:28.144Z,14.60
2022-09-13T04:46:56.986Z,15.40
2022-09-13T04:49:25.746Z,15.17
2022-09-13T04:51:54.017Z,14.23
2022-09-13T04:54:22.403Z,12.97
2022-09-13T04:56:50.754Z,12.90
2022-09-13T04:59:20.594Z,12.60
2022-09-13T05:01:48.932Z,12.80
2022-09-13T05:04:17.318Z,12.67
2022-09-13T05:06:45.846Z,12.43
2022-09-13T05:09:15.676Z,12.20
2022-09-13T05:11:44.344Z,12.40
2022-09-13T05:14:13.442Z,12.67
2022-09-13T05:16:43.213Z,13.27
2022-09-13T05:19:13.253Z,11.80
2022-09-13T05:21:41.536Z,11.83
2022-09-13T05:24:10.027Z,11.83
2022-09-13T05:26:38.493Z,11.57
2022-09-13T05:29:07.133Z,10.83
2022-09-13T05:31:38.616Z,10.90
2022-09-13T05:34:11.647Z,11.00
2022-09-13T05:36:40.259Z,10.77
2022-09-13T05:39:29.776Z,11.60
2022-09-13T05:42:01.496Z,10.83
2022-09-13T05:44:29.944Z,10.40
2022-09-13T05:46:58.269Z,10.60
2022-09-13T05:49:27.997Z,10.20
2022-09-13T05:51:56.308Z,9.67
2022-09-13T05:54:24.611Z,9.80
2022-09-13T05:56:54.358Z,9.63
2022-09-13T05:59:23.064Z,9.70
2022-09-13T06:01:51.545Z,9.60
2022-09-13T06:04:19.882Z,9.87
2022-09-13T06:06:50.148Z,9.50
2022-09-13T06:09:18.837Z,9.20
2022-09-13T06:11:47.153Z,8.90
2022-09-13T06:14:15.507Z,9.35
2022-09-13T06:16:43.787Z,9.00
2022-09-13T06:19:12.175Z,8.57
2022-09-13T06:21:40.416Z,8.82
2022-09-13T06:24:10.745Z,9.35
2022-09-13T06:26:39.075Z,9.07
2022-09-13T06:29:07.422Z,8.90
2022-09-13T06:31:36.668Z,9.10
2022-09-13T06:34:05.540Z,8.43
2022-09-13T06:36:33.904Z,8.48
2022-09-13T06:39:02.178Z,8.50
2022-09-13T06:41:31.963Z,8.32
2022-09-13T06:44:02.442Z,7.95
2022-09-13T06:46:32.340Z,8.35
2022-09-13T06:49:02.186Z,8.05
2022-09-13T06:51:31.145Z,8.43
2022-09-13T06:54:00.219Z,7.70
2022-09-13T06:56:30.523Z,7.53
2022-09-13T06:59:02.954Z,8.40
2022-09-13T07:01:33.083Z,8.15
2022-09-13T07:04:03.367Z,7.63
2022-09-13T07:06:34.314Z,8.00
2022-09-13T07:09:05.100Z,8.85
2022-09-13T07:11:36.196Z,8.43
2022-09-13T07:14:07.441Z,9.30
2022-09-13T07:16:37.545Z,11.77
2022-09-13T07:19:07.805Z,11.98
2022-09-13T07:21:36.934Z,11.45
2022-09-13T07:24:06.077Z,10.50
2022-09-13T07:26:34.692Z,12.18
2022-09-13T07:29:06.603Z,15.93
2022-09-13T07:31:36.627Z,14.23
2022-09-13T07:34:07.554Z,13.00
2022-09-13T07:36:37.496Z,12.32
2022-09-13T07:39:09.867Z,12.43
2022-09-13T07:41:40.727Z,12.40
2022-09-13T07:44:11.708Z,11.70
2022-09-13T07:46:44.232Z,10.27
2022-09-13T07:49:14.007Z,9.82
2022-09-13T07:51:43.697Z,8.27
2022-09-13T07:54:14.238Z,8.73
2022-09-13T07:56:43.214Z,8.02
2022-09-13T07:59:15.824Z,9.00
2022-09-13T08:01:46.082Z,8.50
2022-09-13T08:04:17.607Z,8.30
2022-09-13T08:06:46.996Z,8.98
2022-09-13T08:09:16.514Z,9.32
2022-09-13T08:11:47.064Z,9.07
2022-09-13T08:14:18.735Z,9.80
2022-09-13T08:16:47.338Z,10.13
2022-09-13T08:19:17.376Z,9.30
2022-09-13T08:21:46.623Z,9.48
2022-09-13T08:24:16.876Z,10.02
2022-09-13T08:26:45.675Z,9.55
2022-09-13T08:29:16.393Z,9.43
2022-09-13T08:31:45.168Z,8.95
2022-09-13T08:34:15.561Z,10.82
2022-09-13T08:36:44.568Z,10.40
2022-09-13T08:39:14.221Z,10.20
2022-09-13T08:42:04.878Z,9.50
2022-09-13T08:44:37.125Z,9.07
2022-09-13T08:47:25.582Z,7.80
2022-09-13T08:50:02.723Z,7.57
2022-09-13T08:52:34.635Z,7.85
2022-09-13T08:55:08.101Z,8.00
2022-09-13T08:57:45.215Z,7.53
2022-09-13T09:00:23.148Z,7.07
2022-09-13T09:03:01.747Z,6.55
2022-09-13T09:05:31.708Z,6.63
2022-09-13T09:08:04.146Z,7.03
2022-09-13T09:10:36.801Z,7.30
2022-09-13T09:13:09.272Z,8.10
2022-09-13T09:15:43.266Z,8.10
2022-09-13T09:18:15.567Z,7.70
2022-09-13T09:20:47.921Z,6.18
2022-09-13T09:23:21.435Z,6.40
2022-09-13T09:25:53.920Z,5.97
2022-09-13T09:28:22.298Z,6.28
2022-09-13T09:31:01.925Z,6.28
2022-09-13T09:33:48.517Z,6.45
2022-09-13T09:36:25.440Z,6.68
2022-09-13T09:38:53.746Z,6.85
2022-09-13T09:41:28.337Z,5.93
2022-09-13T09:44:02.812Z,6.43
2022-09-13T09:46:37.007Z,6.30
2022-09-13T09:49:34.787Z,6.38
2022-09-13T09:52:06.912Z,6.22
2022-09-13T09:54:38.213Z,6.82
2022-09-13T09:57:08.125Z,6.38
2022-09-13T09:59:37.220Z,6.70
2022-09-13T10:02:17.614Z,6.47
2022-09-13T10:04:56.283Z,6.97
2022-09-13T10:07:30.365Z,6.78
2022-09-13T10:10:04.077Z,6.45
2022-09-13T10:12:35.376Z,6.78
2022-09-13T10:15:17.443Z,6.63
2022-09-13T10:18:03.402Z,6.40
2022-09-13T10:20:32.464Z,6.35
2022-09-13T10:23:21.715Z,6.35
2022-09-13T10:26:15.555Z,6.25
2022-09-13T10:28:48.363Z,6.07
2022-09-13T10:31:18.630Z,6.35
2022-09-13T10:33:59.656Z,7.00
2022-09-13T10:39:22.431Z,6.88
2022-09-13T10:41:53.548Z,6.50
2022-09-13T10:44:33.077Z,7.35
2022-09-13T10:47:04.397Z,6.90
2022-09-13T10:49:47.894Z,8.30
2022-09-13T10:52:31.262Z,6.88
2022-09-13T10:55:34.416Z,6.65
2022-09-13T10:58:19.379Z,6.40
2022-09-13T11:01:20.276Z,6.55
2022-09-13T11:04:32.207Z,7.53
2022-09-13T11:07:21.390Z,6.70
2022-09-13T11:09:59.232Z,7.18
2022-09-13T11:12:38.325Z,6.97
2022-09-13T11:15:19.113Z,6.85
2022-09-13T11:18:18.559Z,7.10
2022-09-13T11:20:51.304Z,7.57
2022-09-13T11:23:44.343Z,7.70
2022-09-13T11:26:41.961Z,7.60
2022-09-13T11:29:25.597Z,7.70
2022-09-13T11:32:06.934Z,7.90
2022-09-13T11:34:49.421Z,8.52
2022-09-13T11:37:47.967Z,7.97
2022-09-13T11:40:36.023Z,8.10
2022-09-13T11:43:29.073Z,7.40
2022-09-13T11:46:05.360Z,7.70
2022-09-13T11:48:53.486Z,8.00
2022-09-13T11:51:31.592Z,7.70
2022-09-13T11:54:17.399Z,7.45
2022-09-13T11:56:51.085Z,7.13
2022-09-13T11:59:29.828Z,6.60
2022-09-13T12:02:02.641Z,6.35
2022-09-13T12:04:39.728Z,7.13
2022-09-13T12:07:15.446Z,7.20
2022-09-13T12:09:53.336Z,7.47
2022-09-13T12:12:26.351Z,7.50
2022-09-13T12:15:01.828Z,7.00
2022-09-13T12:17:36.000Z,7.57
2022-09-13T12:20:06.585Z,7.07
2022-09-13T12:22:37.347Z,7.80
2022-09-13T12:25:13.647Z,7.70
2022-09-13T12:28:05.723Z,6.82
2022-09-13T12:30:42.984Z,7.07
2022-09-13T12:33:16.148Z,7.45
2022-09-13T12:36:06.380Z,8.10
2022-09-13T12:39:15.215Z,7.93
2022-09-13T12:41:56.898Z,7.45
2022-09-13T12:44:42.548Z,7.40
2022-09-13T12:47:43.347Z,7.55
2022-09-13T12:53:36.987Z,7.20
2022-09-13T12:56:18.931Z,7.75
2022-09-13T12:59:05.555Z,7.78
2022-09-13T13:01:35.814Z,7.90
2022-09-13T13:04:09.937Z,7.65
2022-09-13T13:06:48.525Z,7.28
2022-09-13T13:09:29.044Z,6.93
2022-09-13T13:11:59.730Z,6.82
2022-09-13T13:14:53.614Z,6.65
2022-09-13T13:17:47.348Z,6.80
2022-09-13T13:20:47.058Z,6.53
2022-09-13T13:23:23.578Z,7.15
2022-09-13T13:26:05.912Z,7.30
2022-09-13T13:29:06.467Z,6.82
2022-09-13T13:31:39.779Z,7.38
2022-09-13T13:34:38.349Z,7.28
2022-09-13T13:37:26.136Z,6.60
2022-09-13T13:40:22.921Z,7.15
2022-09-13T13:42:51.389Z,7.20
2022-09-13T13:45:26.196Z,6.70
2022-09-13T13:48:11.957Z,6.82
2022-09-13T13:51:20.350Z,7.28
2022-09-13T13:53:56.360Z,6.70
2022-09-13T13:56:48.569Z,6.80
2022-09-13T13:59:23.364Z,7.22
2022-09-13T14:01:55.733Z,8.10
2022-09-13T14:04:51.444Z,7.00
2022-09-13T14:07:33.717Z,7.30
2022-09-13T14:10:07.419Z,7.45
2022-09-13T14:12:50.876Z,7.10
2022-09-13T14:15:34.985Z,7.70
2022-09-13T14:18:19.055Z,7.45
2022-09-13T14:21:01.768Z,8.27
2022-09-13T14:23:32.370Z,7.85
2022-09-13T14:26:02.235Z,7.20
2022-09-13T14:28:33.129Z,7.55
2022-09-13T14:31:01.546Z,7.85
2022-09-13T14:33:34.795Z,7.50
2022-09-13T14:36:05.747Z,8.23
2022-09-13T14:38:37.067Z,8.10
2022-09-13T14:41:15.463Z,8.10
2022-09-13T14:43:44.976Z,7.93
2022-09-13T14:46:18.943Z,8.20
2022-09-13T14:48:51.778Z,8.32
2022-09-13T14:51:26.187Z,7.57
2022-09-13T14:54:00.405Z,8.40
2022-09-13T14:56:36.061Z,7.85
2022-09-13T14:59:08.577Z,8.50
2022-09-13T15:01:37.330Z,8.40
2022-09-13T15:04:07.510Z,8.57
2022-09-13T15:06:39.159Z,8.23
2022-09-13T15:09:28.923Z,8.73
2022-09-13T15:12:01.158Z,8.32
2022-09-13T15:14:32.313Z,7.90
2022-09-13T15:17:08.193Z,8.43
2022-09-13T15:19:42.241Z,8.40
2022-09-13T15:22:17.607Z,8.98
2022-09-13T15:24:50.197Z,8.05
2022-09-13T15:27:22.263Z,8.40
2022-09-13T15:29:52.283Z,8.20
2022-09-13T15:32:24.584Z,7.88
2022-09-13T15:34:53.085Z,8.35
2022-09-13T15:37:31.298Z,9.13
2022-09-13T15:40:21.283Z,8.77
2022-09-13T15:42:50.886Z,9.30
2022-09-13T15:45:20.497Z,9.63
2022-09-13T15:47:50.135Z,9.63
2022-09-13T15:50:27.561Z,9.43
2022-09-13T15:52:56.546Z,9.55
2022-09-13T15:55:27.419Z,8.63
2022-09-13T15:57:56.235Z,9.00
2022-09-13T16:00:27.221Z,9.03
2022-09-13T16:02:55.854Z,8.20
2022-09-13T16:05:24.267Z,8.27
2022-09-13T16:07:54.138Z,8.15
2022-09-13T16:10:23.858Z,9.20
2022-09-13T16:12:54.901Z,9.30
2022-09-13T16:15:23.283Z,8.47
2022-09-13T16:17:51.574Z,9.00
2022-09-13T16:20:20.047Z,8.83
2022-09-13T16:22:48.635Z,9.07
2022-09-13T16:25:17.239Z,8.30
2022-09-13T16:27:46.374Z,7.80
2022-09-13T16:30:19.942Z,8.83
2022-09-13T16:32:48.287Z,8.10
2022-09-13T16:35:18.051Z,8.90
2022-09-13T16:37:48.526Z,8.90
2022-09-13T16:40:16.978Z,9.30
2022-09-13T16:42:45.374Z,9.30
2022-09-13T16:45:15.405Z,8.87
2022-09-13T16:47:44.141Z,8.97
2022-09-13T16:50:12.643Z,9.43
2022-09-13T16:52:41.168Z,10.20
2022-09-13T16:55:09.970Z,10.93
2022-09-13T16:57:38.402Z,11.00
2022-09-13T17:00:11.687Z,10.67
2022-09-13T17:02:41.417Z,10.80
2022-09-13T17:05:11.211Z,10.40
2022-09-13T17:07:39.755Z,10.63
2022-09-13T17:10:09.634Z,10.93
2022-09-13T17:12:37.975Z,10.03
2022-09-13T17:15:07.080Z,9.93
2022-09-13T17:17:36.444Z,10.10
2022-09-13T17:20:10.215Z,9.50
2022-09-13T17:22:38.794Z,9.70
2022-09-13T17:25:08.924Z,9.60
2022-09-13T17:27:37.595Z,9.60
2022-09-13T17:30:06.845Z,10.20
2022-09-13T17:32:35.218Z,9.90
2022-09-13T17:35:03.533Z,9.50
2022-09-13T17:37:33.159Z,9.00
2022-09-13T17:40:01.564Z,9.73
2022-09-13T17:42:29.966Z,11.00
2022-09-13T17:44:58.553Z,9.97
2022-09-13T17:47:27.248Z,9.33
2022-09-13T17:49:56.105Z,8.70
2022-09-13T17:52:24.423Z,9.33
2022-09-13T17:54:54.185Z,9.77
2022-09-13T17:57:22.433Z,10.80
2022-09-13T17:59:51.805Z,10.57
2022-09-13T18:02:21.719Z,10.37
2022-09-13T18:04:52.089Z,9.60
2022-09-13T18:07:20.882Z,10.33
2022-09-13T18:09:49.347Z,11.30
2022-09-13T18:12:20.601Z,11.37
2022-09-13T18:14:49.046Z,11.40
2022-09-13T18:17:17.356Z,12.23
2022-09-13T18:19:46.945Z,11.70
2022-09-13T18:22:15.899Z,12.30
2022-09-13T18:24:44.674Z,11.63
2022-09-13T18:27:12.998Z,11.40
2022-09-13T18:29:42.688Z,11.07
2022-09-13T18:32:11.102Z,11.40
2022-09-13T18:34:42.167Z,9.97
2022-09-13T18:37:10.727Z,10.63
2022-09-13T18:39:39.034Z,10.77
2022-09-13T18:42:07.573Z,11.37
2022-09-13T18:44:35.835Z,10.60
2022-09-13T18:47:05.489Z,10.80
2022-09-13T18:49:33.784Z,11.70
2022-09-13T18:52:02.066Z,11.33
2022-09-13T18:54:30.418Z,11.70
2022-09-13T18:57:00.101Z,11.13
2022-09-13T18:59:30.375Z,10.93
2022-09-13T19:01:58.831Z,10.77
2022-09-13T19:04:28.577Z,9.90
2022-09-13T19:06:57.084Z,10.33
2022-09-13T19:09:26.084Z,10.13
2022-09-13T19:11:55.674Z,10.63
2022-09-13T19:14:25.924Z,10.13
2022-09-13T19:16:56.472Z,10.20
2022-09-13T19:19:25.294Z,10.77
2022-09-13T19:21:55.036Z,10.30
2022-09-13T19:24:23.702Z,10.30
2022-09-13T19:26:53.493Z,9.83
2022-09-13T19:29:23.478Z,9.87
2022-09-13T19:31:53.297Z,10.53
2022-09-13T19:34:23.609Z,10.37
2022-09-13T19:36:58.208Z,9.70
2022-09-13T19:39:30.326Z,10.07
2022-09-13T19:42:00.640Z,9.30
2022-09-13T19:44:29.434Z,10.70
2022-09-13T19:47:36.061Z,10.33
2022-09-13T19:49:46.113Z,9.90
2022-09-13T19:52:14.450Z,10.37
2022-09-13T19:54:44.050Z,10.70
2022-09-13T19:57:12.997Z,10.47
2022-09-13T19:59:41.244Z,10.77
2022-09-13T20:02:11.048Z,11.20
2022-09-13T20:04:39.374Z,11.07
2022-09-13T20:07:12.074Z,11.80
2022-09-13T20:09:42.310Z,11.93
2022-09-13T20:12:12.688Z,11.30
2022-09-13T20:14:41.163Z,12.00
2022-09-13T20:17:09.558Z,11.77
2022-09-13T20:19:44.799Z,12.27
2022-09-13T20:22:16.076Z,12.97
2022-09-13T20:24:44.393Z,12.87
2022-09-13T20:27:14.087Z,12.83
2022-09-13T20:29:42.379Z,13.60
2022-09-13T20:32:11.410Z,13.30
2022-09-13T20:34:39.768Z,11.70
2022-09-13T20:37:08.064Z,12.23
2022-09-13T20:39:36.373Z,12.77
2022-09-13T20:42:04.729Z,13.67
2022-09-13T20:44:34.414Z,13.30
2022-09-13T20:47:03.086Z,13.27
2022-09-13T20:49:31.353Z,13.10
2022-09-13T20:52:00.011Z,13.03
2022-09-13T20:54:28.365Z,12.40
2022-09-13T20:56:56.684Z,13.03
2022-09-13T20:59:24.987Z,12.20
2022-09-13T21:01:54.672Z,11.83
2022-09-13T21:04:23.335Z,12.27
2022-09-13T21:07:13.704Z,12.50
2022-09-13T21:09:43.407Z,11.53
2022-09-13T21:12:11.861Z,11.83
2022-09-13T21:14:40.164Z,12.33
2022-09-13T21:17:09.780Z,12.03
2022-09-13T21:19:38.154Z,12.80
2022-09-13T21:22:06.487Z,12.63
2022-09-13T21:24:34.860Z,12.03
2022-09-13T21:27:03.326Z,12.13
2022-09-13T21:29:32.018Z,11.40
2022-09-13T21:32:00.346Z,12.20
2022-09-13T21:34:30.243Z,12.20
2022-09-13T21:36:58.535Z,11.93
2022-09-13T21:39:26.875Z,13.10
2022-09-13T21:41:55.117Z,12.80
2022-09-13T21:44:23.606Z,12.47
2022-09-13T21:46:52.610Z,12.83
2022-09-13T21:49:21.965Z,12.37
2022-09-13T21:51:54.185Z,13.07
2022-09-13T21:54:22.933Z,13.37
2022-09-13T21:56:52.969Z,13.17
2022-09-13T21:59:23.203Z,13.30
2022-09-13T22:01:53.073Z,13.37
2022-09-13T22:04:22.914Z,13.97
2022-09-13T22:06:53.993Z,13.40
2022-09-13T22:09:24.703Z,12.47
2022-09-13T22:11:53.004Z,11.80
2022-09-13T22:14:22.691Z,12.20
2022-09-13T22:17:11.431Z,12.00
2022-09-13T22:19:39.761Z,11.37
2022-09-13T22:22:09.420Z,11.67
2022-09-13T22:24:37.766Z,12.27
2022-09-13T22:27:07.217Z,11.60
2022-09-13T22:29:35.887Z,12.10
2022-09-13T22:32:04.871Z,11.90
2022-09-13T22:34:35.023Z,11.07
2022-09-13T22:37:03.337Z,12.17
2022-09-13T22:39:32.966Z,12.37
2022-09-13T22:42:01.439Z,12.00
2022-09-13T22:44:30.173Z,11.40
2022-09-13T22:47:00.611Z,11.83
2022-09-13T22:49:28.896Z,12.03
2022-09-13T22:51:57.211Z,11.20
2022-09-13T22:54:25.535Z,11.93
2022-09-13T22:56:55.113Z,10.90
2022-09-13T22:59:23.461Z,12.20
2022-09-13T23:01:51.996Z,12.57
2022-09-13T23:04:20.361Z,12.63
2022-09-13T23:06:48.944Z,12.60
2022-09-13T23:09:19.910Z,12.67
2022-09-13T23:11:48.988Z,12.53
2022-09-13T23:14:20.440Z,12.23
2022-09-13T23:16:51.263Z,11.97
2022-09-13T23:19:21.902Z,12.30
2022-09-13T23:21:50.337Z,12.17
2022-09-13T23:24:19.836Z,12.57
2022-09-13T23:26:49.039Z,12.10
2022-09-13T23:29:20.298Z,12.43
2022-09-13T23:31:49.933Z,12.20
2022-09-13T23:34:18.963Z,11.87
2022-09-13T23:36:47.936Z,12.33
2022-09-13T23:39:18.320Z,12.60
2022-09-13T23:41:48.365Z,12.57
2022-09-13T23:44:18.681Z,12.47
2022-09-13T23:46:46.965Z,13.90
2022-09-13T23:49:15.550Z,14.37
2022-09-13T23:51:44.122Z,14.13
2022-09-13T23:54:14.130Z,12.77
2022-09-13T23:56:42.780Z,13.23
2022-09-13T23:59:12.997Z,12.90
